WetterOnline ( https://www.wetteronline.de )

Wetter aktuell Hagen

Aktuelles Wetter: Lüdenscheid (392m)

6-stündlich | Neueste Meldungen
Ortszeit Temperatur Wetter
So, 04.12. 13:00 -0.6° C bedeckt
So, 04.12. 7:00 -1.9° C bedeckt
So, 04.12. 1:00 -1.1° C bedeckt
Sa, 03.12. 19:00 -1.1° C bewölkt
Sa, 03.12. 13:00 -0.9° C bedeckt
Sa, 03.12. 7:00 -1.3° C Schneegriesel
Sa, 03.12. 1:00 -0.9° C bedeckt
Fr, 02.12. 19:00 -0.6° C leichter Schneefall
Ortszeit Temperatur Wetter
So, 04.12. 18:30 -0.1° C bedeckt
So, 04.12. 18:20 -0.1° C bedeckt
So, 04.12. 18:10 -0.1° C bedeckt
So, 04.12. 18:00 -0.1° C bedeckt
So, 04.12. 17:50 -0.1° C bedeckt
So, 04.12. 17:40 -0.1° C bedeckt
So, 04.12. 17:30 -0.1° C bedeckt
So, 04.12. 17:00 -0.1° C bedeckt
So, 04.12. 16:30 -0.2° C bedeckt
So, 04.12. 16:00 -0.2° C bedeckt
So, 04.12. 15:30 -0.2° C bedeckt
Ortszeit Relative Feuchte Sichtweite
So, 04.12. 13:00 87% 18 km
So, 04.12. 7:00 86% 28 km
So, 04.12. 1:00 89% 11 km
Sa, 03.12. 19:00 90% 9 km
Sa, 03.12. 13:00 84% 15 km
Sa, 03.12. 7:00 88% 18 km
Sa, 03.12. 1:00 88% 22 km
Fr, 02.12. 19:00 90% 2.7 km
Ortszeit Relative Feuchte Sichtweite
So, 04.12. 18:30 91% 11 km
So, 04.12. 18:20 91% -
So, 04.12. 18:10 92% -
So, 04.12. 18:00 92% 9 km
So, 04.12. 17:50 92% -
So, 04.12. 17:40 92% -
So, 04.12. 17:30 92% 10 km
So, 04.12. 17:00 92% 12 km
So, 04.12. 16:30 91% 12 km
So, 04.12. 16:00 91% 15 km
So, 04.12. 15:30 91% 15 km
Ortszeit Niederschlagsmenge Niederschlagsart
So, 04.12. 13:00 0.0 l/m2 in 6 Std. -
So, 04.12. 7:00 0.0 l/m2 in 12 Std. -
So, 04.12. 1:00 0.0 l/m2 in 6 Std. -
Sa, 03.12. 19:00 0.1 l/m2 in 12 Std. Schnee, Sprühregen
Sa, 03.12. 13:00 0.1 l/m2 in 6 Std. Schnee
Sa, 03.12. 7:00 0.8 l/m2 in 12 Std. Schnee, Sprühregen
Sa, 03.12. 1:00 0.8 l/m2 in 6 Std. Schnee
Fr, 02.12. 19:00 0.2 l/m2 in 12 Std. Schnee, Regen
Ortszeit Niederschlagsmenge Niederschlagsart
So, 04.12. 18:30 0.0 l/m2 in 30 Min -
So, 04.12. 18:20 keine Meldung -
So, 04.12. 18:10 keine Meldung -
So, 04.12. 18:00 0.0 l/m2 in 1 Std. -
So, 04.12. 17:50 keine Meldung -
So, 04.12. 17:40 keine Meldung -
So, 04.12. 17:30 0.0 l/m2 in 30 Min -
So, 04.12. 17:00 0.0 l/m2 in 1 Std. -
So, 04.12. 16:30 0.0 l/m2 in 30 Min -
So, 04.12. 16:00 0.0 l/m2 in 1 Std. -
So, 04.12. 15:30 0.0 l/m2 in 30 Min -
Ortszeit Stärke Spitze Richtung
km/h Bft. km/h Grad Sektor
So, 04.12. 13:00 13 3 22 60° NO
So, 04.12. 7:00 14 3 25 90° O
So, 04.12. 1:00 9 2 17 60° NO
Sa, 03.12. 19:00 9 2 17 60° NO
Sa, 03.12. 13:00 11 2 26 60° NO
Sa, 03.12. 7:00 13 3 26 60° NO
Sa, 03.12. 1:00 13 3 31 60° NO
Fr, 02.12. 19:00 14 3 32 60° NO
Ortszeit Stärke Spitze Richtung
km/h Bft. km/h Grad Sektor
So, 04.12. 18:30 14 3 25 60° NO
So, 04.12. 18:20 14 3 - 60° NO
So, 04.12. 18:10 11 2 - 70° O
So, 04.12. 18:00 11 2 18 60° NO
So, 04.12. 17:50 11 2 - 60° NO
So, 04.12. 17:40 13 3 - 70° O
So, 04.12. 17:30 11 2 18 60° NO
So, 04.12. 17:00 9 2 19 60° NO
So, 04.12. 16:30 9 2 19 60° NO
So, 04.12. 16:00 11 2 18 60° NO
So, 04.12. 15:30 7 2 14 60° NO
Ortszeit Untergrenze Bedeckung Gattung
total tief tief mittel hoch
So, 04.12. 13:00 210 m 8/8 8/8 - - -
So, 04.12. 7:00 210 m 8/8 8/8 - - -
So, 04.12. 1:00 720 m 8/8 8/8 - - -
Sa, 03.12. 19:00 180 m 7/8 7/8 - - -
Sa, 03.12. 13:00 270 m 8/8 8/8 - - -
Sa, 03.12. 7:00 240 m 7/8 7/8 - - -
Sa, 03.12. 1:00 210 m 8/8 8/8 - - -
Fr, 02.12. 19:00 240 m 8/8 8/8 - - -
Ortszeit Bedeckungsgrad in Achtel und Wolkenuntergrenze
So, 04.12. 18:30 8(120m)
So, 04.12. 18:20 8(120m)
So, 04.12. 18:10 8
So, 04.12. 18:00 8(90m)
So, 04.12. 17:50 8(90m)
So, 04.12. 17:40 8
So, 04.12. 17:30 8(90m)
So, 04.12. 17:00 8(120m)
So, 04.12. 16:30 8(120m)
So, 04.12. 16:00 8(120m)
So, 04.12. 15:30 8(120m)
Ortszeit Luftdruck NN (hPa) Tendenz (hPa in 3 Std.)
So, 04.12. 13:00 1017 - 0,8
So, 04.12. 7:00 1018 - 0,1
So, 04.12. 1:00 1018 - 0,8
Sa, 03.12. 19:00 1019 - 0,2
Sa, 03.12. 13:00 1021 - 1,1
Sa, 03.12. 7:00 1022 - 0,7
Sa, 03.12. 1:00 1023 - 0,1
Fr, 02.12. 19:00 1023 + 0,5
Ortszeit Luftdruck NN (hPa) Tendenz (hPa in 3 Std.)
So, 04.12. 18:30 1017 + 0,3
So, 04.12. 18:20 1017 keine Meldung
So, 04.12. 18:10 1017 keine Meldung
So, 04.12. 18:00 1017 + 0,2
So, 04.12. 17:50 1017 keine Meldung
So, 04.12. 17:40 1016 keine Meldung
So, 04.12. 17:30 1016 - 0,1
So, 04.12. 17:00 1016 + 0,1
So, 04.12. 16:30 1016 - 0,6
So, 04.12. 16:00 1016 - 0,7
So, 04.12. 15:30 1016 - 0,7
Ortszeit Schneehöhe (cm)
So, 04.12. 13:00 0
So, 04.12. 7:00 0
So, 04.12. 1:00 0
Sa, 03.12. 19:00 0
Sa, 03.12. 13:00 0
Sa, 03.12. 7:00 1
Sa, 03.12. 1:00 1
Fr, 02.12. 19:00 0
Ortszeit Schneehöhe (cm)
So, 04.12. 18:30 0
So, 04.12. 18:20 0
So, 04.12. 18:10 0
So, 04.12. 18:00 0
So, 04.12. 17:50 0
So, 04.12. 17:40 0
So, 04.12. 17:30 0
So, 04.12. 17:00 0
So, 04.12. 16:30 0
So, 04.12. 16:00 0
So, 04.12. 15:30 0
Link zu dieser Seite / Seite empfehlen

Das Wetter in ...